Miller, NE (68858)

1:14 PM CDT on May 28, 2015 (GMT -0500)
Sumner | | Change Station
CLOSE
Current Station
Personal Weather Station
Location: Sumner, NE
Elevation: 2411 ft
Nearby Weather Stations
Active Advisory: Flood Warning

Elev 2411 ft 40.97 °N, 99.58 °W | Updated 15 minutes ago

Fog
Fog
70.9 °F
Feels Like 74 °F
N
11.0
Wind Variable Wind from South
Gusts 16.0 mph

Today
High -- | Low -- °F
--% Chance of Precip.
Yesterday
High -- | Low -- °F
Precip. -- in
6:09 AM 9:00 PM
Waxing Gibbous, 77% visible
Pressure 29.99 in
Visibility 10.0 miles
Clouds Mostly Cloudy 2400 ft
Heat Index 74 °F
Dew Point 60 °F
Humidity 70%
Rainfall 0.00 in
Snow Depth Not available.
UV 6 out of 12
Pollen 7.30 out of 12
Air Quality Not available.
Flu Activity No Activity
METAR KLXN 281755Z AUTO 18011KT 10SM BKN024 21/16 A2999 RMK AO2 T02060160 10206 20115

More Conditions Fewer Conditions

Pressure 29.99 in
Visibility 10.0 miles
Clouds Mostly Cloudy 2400 ft
Heat Index 74 °F
Dew Point 60 °F
Humidity 70%
Rainfall 0.00 in
Snow Depth Not available.
UV 6 out of 12
Pollen 7.30 out of 12
Air Quality Not available.
Flu Activity No Activity
METAR KLXN 281755Z AUTO 18011KT 10SM BKN024 21/16 A2999 RMK AO2 T02060160 10206 20115

More Conditions Fewer Conditions

10-Day Weather Forecast

Almanac

Astronomy

May. 28, 2015 Rise Set
Actual Time
Civil Twilight
Nautical Twilight
Astronomical Twilight
Moon
Length of Visible Light
Length of Day
Tomorrow will be .
, % of the Moon is Illuminated

Today's Extremes

State Highs State Lows

Community

WunderPhotos

Upload Photos

1,825,009 photos uploaded!

WunderBlogs® & News

Nearby

Air Quality

  Air Quality AQ Index Pollutant
Not available.

Snow Depth

Station Depth Elevation

Earthquake Activity

City Distance Mag. Time & Date
Minimum magnitude displayed is 2.5.

Coastal Water Temperatures

Place Temperature

Stations

Nearby Weather Stations

Station Location Temp. Windchill Dew Point Humidity Wind Precip. Elev Updated Type
                   
Flood Warning
Statement as of 8:21 AM CDT on May 28, 2015

The Flood Warning continues for
the Platte River near Kearney.
* At 7:15 am Thursday the stage was 6.4 feet.
* Flood stage is 6.0 feet.
* Minor flooding is occurring and minor flooding is forecast.
* Forecast... the river is forecast to begin a slow rise and
crest again around 6.7 feet late Sunday and Monday. This
crest would be slightly below the crest on may 22 of
7 feet. It is important to remember this forecast is
based on water which is already in the Platte
River basin. Changes to the forecast water level will be
possible should substantial rainfall be realized across
the basin through south central or western Nebraska at
anytime this week or next.
* At 6.0 feet... minor flooding of rural lowlands occur.


Lat... Lon 4069 9925 4083 9839 4079 9833 4065 9889
      4061 9925